createdAt,value
2022-10-26T00:05:24.838Z,72.22
2022-10-26T00:10:56.780Z,72.36
2022-10-26T00:16:28.516Z,72.46
2022-10-26T00:22:00.313Z,72.54
2022-10-26T00:27:32.126Z,72.67
2022-10-26T00:33:03.889Z,73.17
2022-10-26T00:38:35.481Z,72.96
2022-10-26T00:44:07.347Z,73.07
2022-10-26T00:49:38.989Z,73.13
2022-10-26T00:55:16.539Z,73.32
2022-10-26T01:00:48.275Z,73.24
2022-10-26T01:06:20.006Z,72.94
2022-10-26T01:11:51.923Z,72.79
2022-10-26T01:28:27.551Z,72.59
2022-10-26T01:33:59.694Z,72.83
2022-10-26T01:39:31.626Z,72.58
2022-10-26T01:45:03.711Z,72.49
2022-10-26T01:50:35.681Z,72.72
2022-10-26T01:56:10.163Z,72.68
2022-10-26T02:01:41.782Z,72.59
2022-10-26T02:23:49.625Z,72.36
2022-10-26T02:29:21.254Z,72.84
2022-10-26T02:34:53.274Z,72.74
2022-10-26T02:45:56.877Z,72.56
2022-10-26T02:51:28.437Z,72.58
2022-10-26T03:02:32.382Z,72.43
2022-10-26T03:13:36.241Z,72.87
2022-10-26T03:19:08.145Z,72.97
2022-10-26T03:24:40.214Z,72.98
2022-10-26T03:30:12.063Z,72.98
2022-10-26T03:35:45.677Z,73.23
2022-10-26T03:41:17.631Z,73.32
2022-10-26T03:46:49.565Z,73.23
2022-10-26T03:52:21.838Z,73.25
2022-10-26T03:57:53.897Z,73.25
2022-10-26T04:05:38.203Z,73.24
2022-10-26T04:11:10.126Z,73.23
2022-10-26T04:16:42.031Z,73.08
2022-10-26T04:19:06.220Z,0.00
2022-10-26T04:24:38.102Z,73.44
2022-10-26T04:30:09.929Z,73.57
2022-10-26T04:35:41.520Z,73.84
2022-10-26T04:41:13.281Z,73.72
2022-10-26T04:46:45.254Z,73.89
2022-10-26T04:52:17.158Z,73.77
2022-10-26T04:57:49.286Z,73.68
2022-10-26T05:03:21.092Z,73.61
2022-10-26T05:08:53.004Z,73.65
2022-10-26T05:14:24.550Z,73.71
2022-10-26T05:19:55.965Z,73.48
2022-10-26T05:25:27.926Z,73.43
2022-10-26T05:31:05.868Z,73.32
2022-10-26T05:36:37.718Z,73.35
2022-10-26T05:42:09.579Z,73.42
2022-10-26T05:47:41.569Z,73.40
2022-10-26T05:53:13.449Z,73.32
2022-10-26T05:58:45.319Z,73.33
2022-10-26T06:04:17.624Z,73.27
2022-10-26T06:09:49.326Z,73.31
2022-10-26T06:15:21.040Z,73.51
2022-10-26T06:20:52.753Z,73.46
2022-10-26T06:26:24.601Z,73.30
2022-10-26T06:32:02.698Z,73.30
2022-10-26T06:37:34.964Z,73.33
2022-10-26T06:43:07.035Z,73.39
2022-10-26T06:48:38.870Z,73.36
2022-10-26T06:54:16.297Z,73.34
2022-10-26T06:59:48.242Z,73.45
2022-10-26T07:05:20.189Z,73.55
2022-10-26T07:10:52.158Z,73.30
2022-10-26T07:16:23.824Z,73.21
2022-10-26T07:21:55.703Z,73.10
2022-10-26T07:27:27.521Z,73.15
2022-10-26T07:38:28.825Z,73.28
2022-10-26T07:44:00.905Z,73.17
2022-10-26T07:49:33.139Z,73.08
2022-10-26T07:55:04.858Z,72.80
2022-10-26T08:00:36.848Z,72.68
2022-10-26T08:06:08.545Z,72.23
2022-10-26T08:11:40.169Z,72.21
2022-10-26T08:17:12.085Z,72.12
2022-10-26T08:22:43.936Z,71.98
2022-10-26T08:28:16.022Z,71.41
2022-10-26T08:33:49.565Z,70.99
2022-10-26T08:39:21.880Z,70.14
2022-10-26T08:44:53.584Z,69.91
2022-10-26T08:50:25.440Z,68.99
2022-10-26T08:55:57.151Z,68.75
2022-10-26T09:01:29.272Z,68.33
2022-10-26T09:07:01.553Z,68.05
2022-10-26T09:12:33.356Z,67.10
2022-10-26T09:18:06.299Z,66.79
2022-10-26T09:34:38.007Z,65.09
2022-10-26T09:40:10.181Z,63.98
2022-10-26T09:45:42.368Z,63.25
2022-10-26T09:51:14.378Z,62.57
2022-10-26T09:56:46.380Z,62.21
2022-10-26T10:07:47.860Z,60.66
2022-10-26T10:13:19.615Z,59.83
2022-10-26T10:18:51.417Z,59.31
2022-10-26T10:24:25.887Z,58.30
2022-10-26T10:35:29.709Z,56.58
2022-10-26T10:46:33.798Z,55.26
2022-10-26T10:52:06.170Z,54.73
2022-10-26T10:57:38.078Z,55.21
2022-10-26T11:08:42.382Z,55.21
2022-10-26T11:14:14.621Z,55.38
2022-10-26T11:19:46.895Z,55.00
2022-10-26T11:25:18.881Z,55.46
2022-10-26T11:30:50.981Z,55.06
2022-10-26T11:36:23.046Z,54.60
2022-10-26T11:41:54.844Z,53.66
2022-10-26T11:47:26.537Z,53.83
2022-10-26T12:04:02.324Z,53.12
2022-10-26T12:15:06.410Z,53.76
2022-10-26T12:20:38.275Z,53.17
2022-10-26T12:26:10.324Z,53.12
2022-10-26T12:31:48.375Z,52.96
2022-10-26T12:42:54.228Z,53.39
2022-10-26T12:53:57.815Z,53.15
2022-10-26T13:10:33.219Z,53.62
2022-10-26T13:16:05.062Z,53.61
2022-10-26T13:21:36.956Z,53.72
2022-10-26T13:27:08.737Z,53.82
2022-10-26T13:32:40.414Z,53.41
2022-10-26T13:38:12.057Z,53.78
2022-10-26T13:43:43.920Z,54.02
2022-10-26T13:49:15.565Z,53.73
2022-10-26T13:54:47.463Z,54.17
2022-10-26T14:00:23.363Z,54.42
2022-10-26T14:11:26.993Z,54.83
2022-10-26T14:16:58.722Z,55.14
2022-10-26T14:22:30.837Z,55.21
2022-10-26T14:28:12.084Z,55.43
2022-10-26T14:33:44.397Z,55.45
2022-10-26T14:39:16.238Z,55.53
2022-10-26T14:44:48.149Z,55.53
2022-10-26T14:50:19.851Z,55.71
2022-10-26T14:55:51.636Z,55.71
2022-10-26T15:01:23.820Z,55.95
2022-10-26T15:06:55.801Z,56.04
2022-10-26T15:12:27.556Z,56.30
2022-10-26T15:18:00.043Z,56.47
2022-10-26T15:23:31.886Z,56.71
2022-10-26T15:29:03.773Z,56.86
2022-10-26T15:34:36.178Z,57.15
2022-10-26T15:40:08.213Z,57.28
2022-10-26T15:45:40.178Z,57.56
2022-10-26T15:51:12.025Z,57.66
2022-10-26T16:02:14.233Z,58.02
2022-10-26T16:07:45.923Z,58.29
2022-10-26T16:13:17.774Z,58.43
2022-10-26T16:18:51.106Z,58.57
2022-10-26T16:24:21.911Z,58.69
2022-10-26T16:29:53.795Z,58.90
2022-10-26T16:35:25.976Z,59.01
2022-10-26T16:40:58.006Z,59.26
2022-10-26T16:46:30.055Z,59.42
2022-10-26T16:52:02.044Z,59.59
2022-10-26T16:57:33.760Z,59.72
2022-10-26T17:03:05.806Z,59.86
2022-10-26T17:08:38.182Z,59.93
2022-10-26T17:14:10.438Z,60.18
2022-10-26T17:19:42.714Z,60.30
2022-10-26T17:25:15.388Z,60.42
2022-10-26T17:30:47.415Z,60.52
2022-10-26T17:33:00.200Z,60.54
2022-10-26T17:38:31.923Z,60.57
2022-10-26T17:44:03.907Z,60.69
2022-10-26T17:49:36.405Z,60.79
2022-10-26T17:55:07.807Z,60.84
2022-10-26T18:00:39.846Z,60.90
2022-10-26T18:06:11.606Z,61.05
2022-10-26T18:11:43.871Z,61.15
2022-10-26T18:17:16.134Z,61.29
2022-10-26T18:22:48.409Z,61.44
2022-10-26T18:28:20.159Z,61.70
2022-10-26T18:33:52.189Z,61.81
2022-10-26T18:39:24.383Z,62.07
2022-10-26T18:50:28.208Z,62.39
2022-10-26T18:56:00.183Z,62.53
2022-10-26T19:01:32.490Z,62.89
2022-10-26T19:07:04.548Z,63.07
2022-10-26T19:12:36.400Z,63.28
2022-10-26T19:18:08.080Z,63.48
2022-10-26T19:23:39.933Z,63.81
2022-10-26T19:29:11.689Z,64.00
2022-10-26T19:34:43.276Z,64.08
2022-10-26T19:40:15.245Z,64.13
2022-10-26T19:45:46.922Z,64.35
2022-10-26T19:51:18.776Z,64.39
2022-10-26T19:56:50.599Z,64.67
2022-10-26T20:02:22.629Z,64.73
2022-10-26T20:07:54.643Z,64.88
2022-10-26T20:13:26.420Z,64.96
2022-10-26T20:18:58.258Z,65.04
2022-10-26T20:24:29.973Z,65.16
2022-10-26T20:30:01.626Z,65.23
2022-10-26T20:35:33.390Z,65.44
2022-10-26T20:41:07.915Z,65.64
2022-10-26T20:46:37.746Z,65.75
2022-10-26T20:52:20.780Z,65.75
2022-10-26T20:57:41.023Z,65.74
2022-10-26T21:03:12.958Z,65.97
2022-10-26T21:08:44.619Z,66.00
2022-10-26T21:14:16.583Z,66.17
2022-10-26T21:19:48.421Z,66.43
2022-10-26T21:25:20.176Z,66.69
2022-10-26T21:33:13.078Z,67.01
2022-10-26T21:38:44.767Z,67.25
2022-10-26T21:44:25.982Z,67.33
2022-10-26T21:49:48.394Z,67.41
2022-10-26T21:55:20.194Z,67.64
2022-10-26T22:00:52.063Z,67.63
2022-10-26T22:06:23.947Z,67.65
2022-10-26T22:11:55.539Z,67.71
2022-10-26T22:17:27.080Z,67.67
2022-10-26T22:23:00.446Z,67.71
2022-10-26T22:28:33.112Z,67.70
2022-10-26T22:34:07.334Z,67.71
2022-10-26T22:39:35.770Z,67.73
2022-10-26T22:45:07.586Z,67.73
2022-10-26T22:50:39.569Z,67.84
2022-10-26T22:56:11.033Z,67.96
2022-10-26T23:01:42.755Z,68.05
2022-10-26T23:07:14.568Z,68.11
2022-10-26T23:15:07.280Z,68.42
2022-10-26T23:20:39.241Z,68.48
2022-10-26T23:26:10.839Z,68.63
2022-10-26T23:31:42.603Z,68.57
2022-10-26T23:37:14.757Z,68.60
2022-10-26T23:42:46.502Z,68.66
2022-10-26T23:48:18.221Z,68.71
2022-10-26T23:53:50.229Z,68.69
2022-10-26T23:59:22.046Z,68.81
